sensor_id;sensor_type;location;lat;lon;timestamp;P1;durP1;ratioP1;P2;durP2;ratioP2
33794;SDS011;51430;52.242;21.118;2023-07-31T00:00:56;4.10;;;2.00;;
33794;SDS011;51430;52.242;21.118;2023-07-31T00:03:26;2.40;;;1.90;;
33794;SDS011;51430;52.242;21.118;2023-07-31T00:05:54;3.30;;;1.90;;
33794;SDS011;51430;52.242;21.118;2023-07-31T00:08:22;2.10;;;1.70;;
33794;SDS011;51430;52.242;21.118;2023-07-31T00:10:53;2.00;;;1.80;;
33794;SDS011;51430;52.242;21.118;2023-07-31T00:13:21;2.10;;;1.70;;
33794;SDS011;51430;52.242;21.118;2023-07-31T00:15:49;2.90;;;1.80;;
33794;SDS011;51430;52.242;21.118;2023-07-31T00:18:16;1.90;;;1.70;;
33794;SDS011;51430;52.242;21.118;2023-07-31T00:20:44;2.80;;;1.70;;
33794;SDS011;51430;52.242;21.118;2023-07-31T00:23:12;2.60;;;1.70;;
33794;SDS011;51430;52.242;21.118;2023-07-31T00:25:40;2.00;;;1.80;;
33794;SDS011;51430;52.242;21.118;2023-07-31T00:28:08;2.00;;;1.80;;
33794;SDS011;51430;52.242;21.118;2023-07-31T00:30:37;1.70;;;1.60;;
33794;SDS011;51430;52.242;21.118;2023-07-31T00:33:05;3.10;;;1.80;;
33794;SDS011;51430;52.242;21.118;2023-07-31T00:35:33;1.90;;;1.80;;
33794;SDS011;51430;52.242;21.118;2023-07-31T00:38:01;1.90;;;1.70;;
33794;SDS011;51430;52.242;21.118;2023-07-31T00:40:29;2.10;;;1.90;;
33794;SDS011;51430;52.242;21.118;2023-07-31T00:42:58;3.70;;;1.70;;
33794;SDS011;51430;52.242;21.118;2023-07-31T00:45:29;2.30;;;2.00;;
33794;SDS011;51430;52.242;21.118;2023-07-31T00:47:58;2.90;;;1.90;;
33794;SDS011;51430;52.242;21.118;2023-07-31T00:50:27;4.60;;;2.10;;
33794;SDS011;51430;52.242;21.118;2023-07-31T00:52:56;2.40;;;2.10;;
33794;SDS011;51430;52.242;21.118;2023-07-31T00:55:24;2.60;;;1.80;;
33794;SDS011;51430;52.242;21.118;2023-07-31T00:57:54;2.30;;;2.10;;
33794;SDS011;51430;52.242;21.118;2023-07-31T01:00:23;3.30;;;2.00;;
33794;SDS011;51430;52.242;21.118;2023-07-31T01:02:51;2.50;;;2.00;;
33794;SDS011;51430;52.242;21.118;2023-07-31T01:05:29;2.20;;;2.00;;
33794;SDS011;51430;52.242;21.118;2023-07-31T01:08:05;2.20;;;1.90;;
33794;SDS011;51430;52.242;21.118;2023-07-31T01:10:43;2.10;;;2.00;;
33794;SDS011;51430;52.242;21.118;2023-07-31T01:13:16;2.60;;;2.20;;
33794;SDS011;51430;52.242;21.118;2023-07-31T01:15:45;2.40;;;2.10;;
33794;SDS011;51430;52.242;21.118;2023-07-31T01:18:13;2.70;;;2.30;;
33794;SDS011;51430;52.242;21.118;2023-07-31T01:20:41;2.70;;;2.30;;
33794;SDS011;51430;52.242;21.118;2023-07-31T01:23:28;2.70;;;2.30;;
33794;SDS011;51430;52.242;21.118;2023-07-31T01:26:25;2.90;;;2.30;;
33794;SDS011;51430;52.242;21.118;2023-07-31T01:29:01;2.60;;;2.00;;
33794;SDS011;51430;52.242;21.118;2023-07-31T01:31:35;4.20;;;2.50;;
33794;SDS011;51430;52.242;21.118;2023-07-31T01:34:05;2.50;;;2.30;;
33794;SDS011;51430;52.242;21.118;2023-07-31T01:36:36;3.20;;;2.30;;
33794;SDS011;51430;52.242;21.118;2023-07-31T01:39:04;2.40;;;2.10;;
33794;SDS011;51430;52.242;21.118;2023-07-31T01:41:32;4.80;;;2.40;;
33794;SDS011;51430;52.242;21.118;2023-07-31T01:44:00;3.40;;;2.50;;
33794;SDS011;51430;52.242;21.118;2023-07-31T01:46:28;2.70;;;2.50;;
33794;SDS011;51430;52.242;21.118;2023-07-31T01:48:56;3.60;;;2.40;;
33794;SDS011;51430;52.242;21.118;2023-07-31T01:51:25;3.70;;;2.30;;
33794;SDS011;51430;52.242;21.118;2023-07-31T01:53:52;2.90;;;2.30;;
33794;SDS011;51430;52.242;21.118;2023-07-31T01:56:20;3.60;;;2.40;;
33794;SDS011;51430;52.242;21.118;2023-07-31T01:58:48;3.50;;;2.40;;
33794;SDS011;51430;52.242;21.118;2023-07-31T02:01:16;3.30;;;2.50;;
33794;SDS011;51430;52.242;21.118;2023-07-31T02:03:45;6.10;;;2.30;;
33794;SDS011;51430;52.242;21.118;2023-07-31T02:06:13;3.50;;;2.40;;
33794;SDS011;51430;52.242;21.118;2023-07-31T02:08:41;3.40;;;2.70;;
33794;SDS011;51430;52.242;21.118;2023-07-31T02:11:08;3.60;;;2.20;;
33794;SDS011;51430;52.242;21.118;2023-07-31T02:13:36;2.60;;;2.30;;
33794;SDS011;51430;52.242;21.118;2023-07-31T02:16:04;2.90;;;2.60;;
33794;SDS011;51430;52.242;21.118;2023-07-31T02:18:32;3.20;;;2.60;;
33794;SDS011;51430;52.242;21.118;2023-07-31T02:21:00;2.60;;;2.30;;
33794;SDS011;51430;52.242;21.118;2023-07-31T02:23:28;3.50;;;2.60;;
33794;SDS011;51430;52.242;21.118;2023-07-31T02:25:56;3.10;;;2.50;;
33794;SDS011;51430;52.242;21.118;2023-07-31T02:28:24;3.30;;;2.60;;
33794;SDS011;51430;52.242;21.118;2023-07-31T02:30:51;4.50;;;2.70;;
33794;SDS011;51430;52.242;21.118;2023-07-31T02:33:19;3.30;;;2.90;;
33794;SDS011;51430;52.242;21.118;2023-07-31T02:35:48;5.60;;;2.70;;
33794;SDS011;51430;52.242;21.118;2023-07-31T02:38:15;3.40;;;2.80;;
33794;SDS011;51430;52.242;21.118;2023-07-31T02:40:43;4.10;;;2.90;;
33794;SDS011;51430;52.242;21.118;2023-07-31T02:43:12;3.70;;;2.90;;
33794;SDS011;51430;52.242;21.118;2023-07-31T02:45:40;3.00;;;2.60;;
33794;SDS011;51430;52.242;21.118;2023-07-31T02:48:07;4.00;;;2.80;;
33794;SDS011;51430;52.242;21.118;2023-07-31T02:50:36;3.90;;;3.00;;
33794;SDS011;51430;52.242;21.118;2023-07-31T02:53:04;3.10;;;2.80;;
33794;SDS011;51430;52.242;21.118;2023-07-31T02:55:31;4.40;;;3.00;;
33794;SDS011;51430;52.242;21.118;2023-07-31T02:57:59;4.30;;;3.00;;
33794;SDS011;51430;52.242;21.118;2023-07-31T03:00:27;4.80;;;3.10;;
33794;SDS011;51430;52.242;21.118;2023-07-31T03:02:55;6.80;;;3.00;;
33794;SDS011;51430;52.242;21.118;2023-07-31T03:05:23;4.90;;;2.70;;
33794;SDS011;51430;52.242;21.118;2023-07-31T03:07:51;5.10;;;2.90;;
33794;SDS011;51430;52.242;21.118;2023-07-31T03:10:19;4.00;;;3.00;;
33794;SDS011;51430;52.242;21.118;2023-07-31T03:12:47;4.50;;;3.30;;
33794;SDS011;51430;52.242;21.118;2023-07-31T03:15:15;4.10;;;3.00;;
33794;SDS011;51430;52.242;21.118;2023-07-31T03:17:43;4.40;;;3.20;;
33794;SDS011;51430;52.242;21.118;2023-07-31T03:20:11;3.20;;;2.90;;
33794;SDS011;51430;52.242;21.118;2023-07-31T03:22:39;4.70;;;3.20;;
33794;SDS011;51430;52.242;21.118;2023-07-31T03:25:07;3.30;;;2.90;;
33794;SDS011;51430;52.242;21.118;2023-07-31T03:27:36;3.20;;;2.90;;
33794;SDS011;51430;52.242;21.118;2023-07-31T03:30:05;3.40;;;3.10;;
33794;SDS011;51430;52.242;21.118;2023-07-31T03:32:34;3.90;;;3.20;;
33794;SDS011;51430;52.242;21.118;2023-07-31T03:35:03;3.70;;;2.90;;
33794;SDS011;51430;52.242;21.118;2023-07-31T03:37:33;3.50;;;3.10;;
33794;SDS011;51430;52.242;21.118;2023-07-31T03:40:01;4.50;;;3.20;;
33794;SDS011;51430;52.242;21.118;2023-07-31T03:42:31;4.10;;;3.10;;
33794;SDS011;51430;52.242;21.118;2023-07-31T03:44:59;3.80;;;3.00;;
33794;SDS011;51430;52.242;21.118;2023-07-31T03:47:27;4.20;;;3.10;;
33794;SDS011;51430;52.242;21.118;2023-07-31T03:49:55;3.50;;;3.10;;
33794;SDS011;51430;52.242;21.118;2023-07-31T03:52:22;4.20;;;3.30;;
33794;SDS011;51430;52.242;21.118;2023-07-31T03:54:50;5.10;;;3.10;;
33794;SDS011;51430;52.242;21.118;2023-07-31T03:57:19;4.70;;;2.60;;
33794;SDS011;51430;52.242;21.118;2023-07-31T03:59:47;3.70;;;3.20;;
33794;SDS011;51430;52.242;21.118;2023-07-31T04:02:15;5.20;;;2.80;;
33794;SDS011;51430;52.242;21.118;2023-07-31T04:04:44;4.80;;;2.90;;
33794;SDS011;51430;52.242;21.118;2023-07-31T04:07:11;3.60;;;2.70;;
33794;SDS011;51430;52.242;21.118;2023-07-31T04:09:39;3.90;;;2.70;;
33794;SDS011;51430;52.242;21.118;2023-07-31T04:12:07;5.10;;;3.10;;
33794;SDS011;51430;52.242;21.118;2023-07-31T04:14:35;3.30;;;2.90;;
33794;SDS011;51430;52.242;21.118;2023-07-31T04:17:03;3.90;;;3.00;;
33794;SDS011;51430;52.242;21.118;2023-07-31T04:19:31;3.30;;;2.90;;
33794;SDS011;51430;52.242;21.118;2023-07-31T04:21:59;4.70;;;2.80;;
33794;SDS011;51430;52.242;21.118;2023-07-31T04:24:27;6.00;;;3.30;;
33794;SDS011;51430;52.242;21.118;2023-07-31T04:26:55;4.30;;;3.20;;
33794;SDS011;51430;52.242;21.118;2023-07-31T04:29:24;4.10;;;3.10;;
33794;SDS011;51430;52.242;21.118;2023-07-31T04:31:51;5.20;;;2.80;;
33794;SDS011;51430;52.242;21.118;2023-07-31T04:34:19;4.40;;;2.90;;
33794;SDS011;51430;52.242;21.118;2023-07-31T04:36:47;3.70;;;2.70;;
33794;SDS011;51430;52.242;21.118;2023-07-31T04:39:15;3.40;;;3.10;;
33794;SDS011;51430;52.242;21.118;2023-07-31T04:41:43;4.20;;;3.00;;
33794;SDS011;51430;52.242;21.118;2023-07-31T04:44:11;6.20;;;2.80;;
33794;SDS011;51430;52.242;21.118;2023-07-31T04:46:38;3.30;;;2.70;;
33794;SDS011;51430;52.242;21.118;2023-07-31T04:49:07;3.40;;;2.90;;
33794;SDS011;51430;52.242;21.118;2023-07-31T04:51:35;4.90;;;2.90;;
33794;SDS011;51430;52.242;21.118;2023-07-31T04:54:03;4.00;;;3.00;;
33794;SDS011;51430;52.242;21.118;2023-07-31T04:56:31;5.20;;;2.70;;
33794;SDS011;51430;52.242;21.118;2023-07-31T04:58:58;7.00;;;2.90;;
33794;SDS011;51430;52.242;21.118;2023-07-31T05:01:26;5.40;;;2.90;;
33794;SDS011;51430;52.242;21.118;2023-07-31T05:03:54;6.00;;;2.70;;
33794;SDS011;51430;52.242;21.118;2023-07-31T05:06:22;4.40;;;2.90;;
33794;SDS011;51430;52.242;21.118;2023-07-31T05:08:50;5.00;;;2.90;;
33794;SDS011;51430;52.242;21.118;2023-07-31T05:11:18;4.60;;;2.80;;
33794;SDS011;51430;52.242;21.118;2023-07-31T05:13:45;4.30;;;2.80;;
33794;SDS011;51430;52.242;21.118;2023-07-31T05:16:13;4.10;;;2.90;;
33794;SDS011;51430;52.242;21.118;2023-07-31T05:18:41;3.30;;;2.70;;
33794;SDS011;51430;52.242;21.118;2023-07-31T05:21:09;4.70;;;2.70;;
33794;SDS011;51430;52.242;21.118;2023-07-31T05:23:37;4.80;;;2.80;;
33794;SDS011;51430;52.242;21.118;2023-07-31T05:26:05;4.30;;;2.90;;
33794;SDS011;51430;52.242;21.118;2023-07-31T05:28:34;4.10;;;2.70;;
33794;SDS011;51430;52.242;21.118;2023-07-31T05:31:03;4.30;;;2.60;;
33794;SDS011;51430;52.242;21.118;2023-07-31T05:33:31;4.10;;;2.90;;
33794;SDS011;51430;52.242;21.118;2023-07-31T05:35:59;4.00;;;3.60;;
33794;SDS011;51430;52.242;21.118;2023-07-31T05:38:27;3.70;;;2.70;;
33794;SDS011;51430;52.242;21.118;2023-07-31T05:40:55;5.00;;;2.60;;
33794;SDS011;51430;52.242;21.118;2023-07-31T05:43:23;3.50;;;2.80;;
33794;SDS011;51430;52.242;21.118;2023-07-31T05:45:51;3.70;;;2.80;;
33794;SDS011;51430;52.242;21.118;2023-07-31T05:48:19;4.20;;;2.90;;
33794;SDS011;51430;52.242;21.118;2023-07-31T05:50:47;4.40;;;2.90;;
33794;SDS011;51430;52.242;21.118;2023-07-31T05:53:15;4.60;;;3.00;;
33794;SDS011;51430;52.242;21.118;2023-07-31T05:55:44;5.50;;;3.10;;
33794;SDS011;51430;52.242;21.118;2023-07-31T05:58:12;6.60;;;3.80;;
33794;SDS011;51430;52.242;21.118;2023-07-31T06:00:39;4.60;;;3.00;;
33794;SDS011;51430;52.242;21.118;2023-07-31T06:03:08;3.80;;;3.00;;
33794;SDS011;51430;52.242;21.118;2023-07-31T06:05:37;5.80;;;3.50;;
33794;SDS011;51430;52.242;21.118;2023-07-31T06:08:05;5.20;;;3.10;;
33794;SDS011;51430;52.242;21.118;2023-07-31T06:10:33;3.90;;;2.70;;
33794;SDS011;51430;52.242;21.118;2023-07-31T06:13:02;3.80;;;2.90;;
33794;SDS011;51430;52.242;21.118;2023-07-31T06:15:30;3.70;;;3.10;;
33794;SDS011;51430;52.242;21.118;2023-07-31T06:17:58;3.80;;;3.20;;
33794;SDS011;51430;52.242;21.118;2023-07-31T06:20:30;7.20;;;3.50;;
33794;SDS011;51430;52.242;21.118;2023-07-31T06:23:02;7.30;;;3.30;;
33794;SDS011;51430;52.242;21.118;2023-07-31T06:25:33;5.50;;;2.80;;
33794;SDS011;51430;52.242;21.118;2023-07-31T06:28:02;4.80;;;3.30;;
33794;SDS011;51430;52.242;21.118;2023-07-31T06:30:34;3.50;;;2.90;;
33794;SDS011;51430;52.242;21.118;2023-07-31T06:33:06;4.40;;;2.80;;
33794;SDS011;51430;52.242;21.118;2023-07-31T06:35:38;3.80;;;3.30;;
33794;SDS011;51430;52.242;21.118;2023-07-31T06:38:07;5.80;;;3.20;;
33794;SDS011;51430;52.242;21.118;2023-07-31T06:40:40;4.60;;;2.80;;
33794;SDS011;51430;52.242;21.118;2023-07-31T06:43:11;3.30;;;2.60;;
33794;SDS011;51430;52.242;21.118;2023-07-31T06:45:56;3.70;;;2.80;;
33794;SDS011;51430;52.242;21.118;2023-07-31T06:48:40;5.60;;;2.90;;
33794;SDS011;51430;52.242;21.118;2023-07-31T06:51:15;4.10;;;2.80;;
33794;SDS011;51430;52.242;21.118;2023-07-31T06:53:45;5.10;;;2.90;;
33794;SDS011;51430;52.242;21.118;2023-07-31T06:56:21;6.40;;;3.00;;
33794;SDS011;51430;52.242;21.118;2023-07-31T06:58:56;5.50;;;4.10;;
33794;SDS011;51430;52.242;21.118;2023-07-31T07:01:26;5.00;;;3.00;;
33794;SDS011;51430;52.242;21.118;2023-07-31T07:03:57;6.40;;;2.90;;
33794;SDS011;51430;52.242;21.118;2023-07-31T07:06:31;4.50;;;3.00;;
33794;SDS011;51430;52.242;21.118;2023-07-31T07:09:02;3.90;;;2.90;;
33794;SDS011;51430;52.242;21.118;2023-07-31T07:11:32;6.60;;;2.90;;
33794;SDS011;51430;52.242;21.118;2023-07-31T07:14:07;6.20;;;2.90;;
33794;SDS011;51430;52.242;21.118;2023-07-31T07:16:37;5.90;;;3.00;;
33794;SDS011;51430;52.242;21.118;2023-07-31T07:19:14;4.70;;;3.10;;
33794;SDS011;51430;52.242;21.118;2023-07-31T07:21:45;4.30;;;2.90;;
33794;SDS011;51430;52.242;21.118;2023-07-31T07:24:23;4.90;;;3.20;;
33794;SDS011;51430;52.242;21.118;2023-07-31T07:26:56;5.80;;;3.20;;
33794;SDS011;51430;52.242;21.118;2023-07-31T07:29:27;7.10;;;3.40;;
33794;SDS011;51430;52.242;21.118;2023-07-31T07:31:55;6.70;;;3.30;;
33794;SDS011;51430;52.242;21.118;2023-07-31T07:34:26;4.10;;;2.90;;
33794;SDS011;51430;52.242;21.118;2023-07-31T07:36:55;5.20;;;3.00;;
33794;SDS011;51430;52.242;21.118;2023-07-31T07:39:23;4.90;;;3.00;;
33794;SDS011;51430;52.242;21.118;2023-07-31T07:41:51;7.10;;;3.10;;
33794;SDS011;51430;52.242;21.118;2023-07-31T07:44:21;7.00;;;2.90;;
33794;SDS011;51430;52.242;21.118;2023-07-31T07:46:50;4.60;;;3.00;;
33794;SDS011;51430;52.242;21.118;2023-07-31T07:49:18;4.00;;;3.10;;
33794;SDS011;51430;52.242;21.118;2023-07-31T07:51:47;4.20;;;3.00;;
33794;SDS011;51430;52.242;21.118;2023-07-31T07:54:15;5.20;;;3.00;;
33794;SDS011;51430;52.242;21.118;2023-07-31T07:56:44;3.60;;;2.90;;
33794;SDS011;51430;52.242;21.118;2023-07-31T07:59:12;4.50;;;2.70;;
33794;SDS011;51430;52.242;21.118;2023-07-31T08:01:40;5.00;;;2.90;;
33794;SDS011;51430;52.242;21.118;2023-07-31T08:04:08;4.40;;;2.90;;
33794;SDS011;51430;52.242;21.118;2023-07-31T08:06:36;4.70;;;3.10;;
33794;SDS011;51430;52.242;21.118;2023-07-31T08:09:05;4.00;;;2.80;;
33794;SDS011;51430;52.242;21.118;2023-07-31T08:11:34;5.50;;;2.60;;
33794;SDS011;51430;52.242;21.118;2023-07-31T08:14:02;5.70;;;2.90;;
33794;SDS011;51430;52.242;21.118;2023-07-31T08:16:30;5.00;;;3.00;;
33794;SDS011;51430;52.242;21.118;2023-07-31T08:19:02;5.30;;;2.90;;
33794;SDS011;51430;52.242;21.118;2023-07-31T08:21:31;4.50;;;2.70;;
33794;SDS011;51430;52.242;21.118;2023-07-31T08:23:59;4.50;;;2.70;;
33794;SDS011;51430;52.242;21.118;2023-07-31T08:26:27;4.90;;;2.80;;
33794;SDS011;51430;52.242;21.118;2023-07-31T08:28:55;4.30;;;2.20;;
33794;SDS011;51430;52.242;21.118;2023-07-31T08:31:23;5.10;;;2.50;;
33794;SDS011;51430;52.242;21.118;2023-07-31T08:33:51;6.80;;;2.80;;
33794;SDS011;51430;52.242;21.118;2023-07-31T08:36:19;4.40;;;2.30;;
33794;SDS011;51430;52.242;21.118;2023-07-31T08:38:47;3.70;;;2.20;;
33794;SDS011;51430;52.242;21.118;2023-07-31T08:41:15;5.00;;;2.40;;
33794;SDS011;51430;52.242;21.118;2023-07-31T08:43:45;4.10;;;2.20;;
33794;SDS011;51430;52.242;21.118;2023-07-31T08:46:14;4.80;;;2.40;;
33794;SDS011;51430;52.242;21.118;2023-07-31T08:48:42;3.70;;;2.30;;
33794;SDS011;51430;52.242;21.118;2023-07-31T08:51:13;2.90;;;2.30;;
33794;SDS011;51430;52.242;21.118;2023-07-31T08:53:43;4.00;;;2.10;;
33794;SDS011;51430;52.242;21.118;2023-07-31T08:56:11;4.70;;;2.10;;
33794;SDS011;51430;52.242;21.118;2023-07-31T08:58:40;4.80;;;2.20;;
33794;SDS011;51430;52.242;21.118;2023-07-31T09:01:10;3.90;;;2.70;;
33794;SDS011;51430;52.242;21.118;2023-07-31T09:03:39;4.90;;;2.40;;
33794;SDS011;51430;52.242;21.118;2023-07-31T09:06:09;4.10;;;2.40;;
33794;SDS011;51430;52.242;21.118;2023-07-31T09:08:38;4.00;;;2.30;;
33794;SDS011;51430;52.242;21.118;2023-07-31T09:11:09;6.50;;;2.80;;
33794;SDS011;51430;52.242;21.118;2023-07-31T09:13:37;4.60;;;2.30;;
33794;SDS011;51430;52.242;21.118;2023-07-31T09:16:08;4.10;;;2.40;;
33794;SDS011;51430;52.242;21.118;2023-07-31T09:18:53;4.40;;;2.60;;
33794;SDS011;51430;52.242;21.118;2023-07-31T09:21:26;4.60;;;2.40;;
33794;SDS011;51430;52.242;21.118;2023-07-31T09:23:55;5.00;;;2.20;;
33794;SDS011;51430;52.242;21.118;2023-07-31T09:26:35;6.50;;;2.40;;
33794;SDS011;51430;52.242;21.118;2023-07-31T09:29:05;4.20;;;1.90;;
33794;SDS011;51430;52.242;21.118;2023-07-31T09:34:09;3.20;;;2.00;;
33794;SDS011;51430;52.242;21.118;2023-07-31T09:36:42;4.00;;;2.10;;
33794;SDS011;51430;52.242;21.118;2023-07-31T09:39:17;3.00;;;2.10;;
33794;SDS011;51430;52.242;21.118;2023-07-31T09:41:47;3.80;;;1.90;;
33794;SDS011;51430;52.242;21.118;2023-07-31T09:44:36;5.50;;;2.20;;
33794;SDS011;51430;52.242;21.118;2023-07-31T09:47:07;4.60;;;1.80;;
33794;SDS011;51430;52.242;21.118;2023-07-31T09:49:51;3.80;;;2.10;;
33794;SDS011;51430;52.242;21.118;2023-07-31T09:52:19;4.10;;;1.90;;
33794;SDS011;51430;52.242;21.118;2023-07-31T09:54:46;3.80;;;2.20;;
33794;SDS011;51430;52.242;21.118;2023-07-31T09:57:16;3.30;;;2.00;;
33794;SDS011;51430;52.242;21.118;2023-07-31T09:59:46;5.80;;;3.00;;
33794;SDS011;51430;52.242;21.118;2023-07-31T10:02:18;4.20;;;2.20;;
33794;SDS011;51430;52.242;21.118;2023-07-31T10:04:49;3.20;;;2.00;;
33794;SDS011;51430;52.242;21.118;2023-07-31T10:07:18;6.00;;;2.30;;
33794;SDS011;51430;52.242;21.118;2023-07-31T10:09:50;4.70;;;2.20;;
33794;SDS011;51430;52.242;21.118;2023-07-31T10:12:19;4.90;;;2.00;;
33794;SDS011;51430;52.242;21.118;2023-07-31T10:14:53;3.50;;;2.10;;
33794;SDS011;51430;52.242;21.118;2023-07-31T10:17:22;5.50;;;2.10;;
33794;SDS011;51430;52.242;21.118;2023-07-31T10:19:54;3.00;;;2.00;;
33794;SDS011;51430;52.242;21.118;2023-07-31T10:22:30;3.80;;;1.90;;
33794;SDS011;51430;52.242;21.118;2023-07-31T10:24:59;3.90;;;1.80;;
33794;SDS011;51430;52.242;21.118;2023-07-31T10:27:32;4.10;;;1.90;;
33794;SDS011;51430;52.242;21.118;2023-07-31T10:30:04;3.80;;;2.00;;
33794;SDS011;51430;52.242;21.118;2023-07-31T10:32:35;4.10;;;1.80;;
33794;SDS011;51430;52.242;21.118;2023-07-31T10:35:05;4.60;;;1.80;;
33794;SDS011;51430;52.242;21.118;2023-07-31T10:37:36;3.40;;;1.70;;
33794;SDS011;51430;52.242;21.118;2023-07-31T10:40:06;5.00;;;1.90;;
33794;SDS011;51430;52.242;21.118;2023-07-31T10:42:50;4.80;;;2.00;;
33794;SDS011;51430;52.242;21.118;2023-07-31T10:45:31;3.70;;;1.70;;
33794;SDS011;51430;52.242;21.118;2023-07-31T10:48:07;3.30;;;1.70;;
33794;SDS011;51430;52.242;21.118;2023-07-31T10:50:49;2.70;;;1.60;;
33794;SDS011;51430;52.242;21.118;2023-07-31T10:53:24;2.30;;;1.60;;
33794;SDS011;51430;52.242;21.118;2023-07-31T10:55:57;2.90;;;1.60;;
33794;SDS011;51430;52.242;21.118;2023-07-31T10:58:26;2.80;;;1.30;;
33794;SDS011;51430;52.242;21.118;2023-07-31T11:00:56;2.00;;;1.30;;
33794;SDS011;51430;52.242;21.118;2023-07-31T11:03:40;3.70;;;1.50;;
33794;SDS011;51430;52.242;21.118;2023-07-31T11:06:09;3.80;;;1.90;;
33794;SDS011;51430;52.242;21.118;2023-07-31T11:08:48;3.60;;;1.70;;
33794;SDS011;51430;52.242;21.118;2023-07-31T11:11:19;3.90;;;2.00;;
33794;SDS011;51430;52.242;21.118;2023-07-31T11:13:49;1.70;;;1.30;;
33794;SDS011;51430;52.242;21.118;2023-07-31T11:16:20;3.70;;;1.70;;
33794;SDS011;51430;52.242;21.118;2023-07-31T11:18:50;2.80;;;1.50;;
33794;SDS011;51430;52.242;21.118;2023-07-31T11:21:20;2.30;;;1.40;;
33794;SDS011;51430;52.242;21.118;2023-07-31T11:23:53;3.10;;;1.60;;
33794;SDS011;51430;52.242;21.118;2023-07-31T11:26:27;5.50;;;1.50;;
33794;SDS011;51430;52.242;21.118;2023-07-31T11:28:55;3.40;;;1.60;;
33794;SDS011;51430;52.242;21.118;2023-07-31T11:31:23;2.40;;;1.60;;
33794;SDS011;51430;52.242;21.118;2023-07-31T11:34:03;2.30;;;1.40;;
33794;SDS011;51430;52.242;21.118;2023-07-31T11:36:32;3.10;;;1.40;;
33794;SDS011;51430;52.242;21.118;2023-07-31T11:39:10;3.50;;;1.60;;
33794;SDS011;51430;52.242;21.118;2023-07-31T11:41:40;3.50;;;1.50;;
33794;SDS011;51430;52.242;21.118;2023-07-31T11:44:08;3.20;;;1.50;;
33794;SDS011;51430;52.242;21.118;2023-07-31T11:46:56;3.60;;;1.40;;
33794;SDS011;51430;52.242;21.118;2023-07-31T11:49:24;3.60;;;1.50;;
33794;SDS011;51430;52.242;21.118;2023-07-31T11:51:53;1.90;;;1.20;;
33794;SDS011;51430;52.242;21.118;2023-07-31T11:54:22;5.20;;;1.50;;
33794;SDS011;51430;52.242;21.118;2023-07-31T11:56:50;2.80;;;1.40;;
33794;SDS011;51430;52.242;21.118;2023-07-31T11:59:18;3.50;;;1.60;;
33794;SDS011;51430;52.242;21.118;2023-07-31T12:01:47;4.20;;;1.50;;
33794;SDS011;51430;52.242;21.118;2023-07-31T12:04:18;4.30;;;1.60;;
33794;SDS011;51430;52.242;21.118;2023-07-31T12:06:47;4.80;;;1.60;;
33794;SDS011;51430;52.242;21.118;2023-07-31T12:09:15;3.50;;;1.50;;
33794;SDS011;51430;52.242;21.118;2023-07-31T12:11:45;3.60;;;1.50;;
33794;SDS011;51430;52.242;21.118;2023-07-31T12:14:22;2.90;;;1.60;;
33794;SDS011;51430;52.242;21.118;2023-07-31T12:16:55;3.90;;;1.70;;
33794;SDS011;51430;52.242;21.118;2023-07-31T12:19:25;3.50;;;1.40;;
33794;SDS011;51430;52.242;21.118;2023-07-31T12:21:58;3.00;;;1.50;;
33794;SDS011;51430;52.242;21.118;2023-07-31T12:24:27;3.30;;;1.70;;
33794;SDS011;51430;52.242;21.118;2023-07-31T12:26:56;2.80;;;1.40;;
33794;SDS011;51430;52.242;21.118;2023-07-31T12:29:41;4.10;;;1.70;;
33794;SDS011;51430;52.242;21.118;2023-07-31T12:32:24;3.40;;;1.60;;
33794;SDS011;51430;52.242;21.118;2023-07-31T12:35:01;2.20;;;1.40;;
33794;SDS011;51430;52.242;21.118;2023-07-31T12:50:56;2.70;;;1.80;;
33794;SDS011;51430;52.242;21.118;2023-07-31T12:53:24;4.30;;;1.80;;
33794;SDS011;51430;52.242;21.118;2023-07-31T12:55:52;3.10;;;1.90;;
33794;SDS011;51430;52.242;21.118;2023-07-31T12:58:20;4.20;;;2.10;;
33794;SDS011;51430;52.242;21.118;2023-07-31T13:00:48;4.90;;;1.70;;
33794;SDS011;51430;52.242;21.118;2023-07-31T13:03:16;2.90;;;1.70;;
33794;SDS011;51430;52.242;21.118;2023-07-31T13:05:44;3.40;;;1.90;;
33794;SDS011;51430;52.242;21.118;2023-07-31T13:08:12;3.40;;;1.80;;
33794;SDS011;51430;52.242;21.118;2023-07-31T13:10:44;3.80;;;1.80;;
33794;SDS011;51430;52.242;21.118;2023-07-31T13:13:12;2.80;;;1.70;;
33794;SDS011;51430;52.242;21.118;2023-07-31T13:15:40;3.50;;;1.70;;
33794;SDS011;51430;52.242;21.118;2023-07-31T13:18:09;5.00;;;1.70;;
33794;SDS011;51430;52.242;21.118;2023-07-31T13:20:37;4.70;;;1.90;;
33794;SDS011;51430;52.242;21.118;2023-07-31T13:23:05;3.30;;;1.90;;
33794;SDS011;51430;52.242;21.118;2023-07-31T13:25:33;4.20;;;1.90;;
33794;SDS011;51430;52.242;21.118;2023-07-31T13:28:02;5.20;;;1.80;;
33794;SDS011;51430;52.242;21.118;2023-07-31T13:30:30;4.80;;;1.80;;
33794;SDS011;51430;52.242;21.118;2023-07-31T13:32:59;4.10;;;1.40;;
33794;SDS011;51430;52.242;21.118;2023-07-31T13:35:28;3.10;;;1.60;;
33794;SDS011;51430;52.242;21.118;2023-07-31T13:37:56;4.40;;;1.80;;
33794;SDS011;51430;52.242;21.118;2023-07-31T13:40:24;3.30;;;1.60;;
33794;SDS011;51430;52.242;21.118;2023-07-31T13:42:52;4.90;;;1.50;;
33794;SDS011;51430;52.242;21.118;2023-07-31T13:45:21;2.90;;;1.50;;
33794;SDS011;51430;52.242;21.118;2023-07-31T13:47:49;4.20;;;1.70;;
33794;SDS011;51430;52.242;21.118;2023-07-31T13:50:19;3.90;;;1.40;;
33794;SDS011;51430;52.242;21.118;2023-07-31T13:52:48;6.60;;;1.70;;
33794;SDS011;51430;52.242;21.118;2023-07-31T13:55:16;2.90;;;1.60;;
33794;SDS011;51430;52.242;21.118;2023-07-31T13:57:44;4.90;;;2.10;;
33794;SDS011;51430;52.242;21.118;2023-07-31T14:00:12;3.50;;;2.30;;
33794;SDS011;51430;52.242;21.118;2023-07-31T14:02:41;4.40;;;2.50;;
33794;SDS011;51430;52.242;21.118;2023-07-31T14:05:09;3.30;;;1.80;;
33794;SDS011;51430;52.242;21.118;2023-07-31T14:07:37;6.00;;;1.90;;
33794;SDS011;51430;52.242;21.118;2023-07-31T14:10:05;3.80;;;2.70;;
33794;SDS011;51430;52.242;21.118;2023-07-31T14:12:35;4.20;;;2.10;;
33794;SDS011;51430;52.242;21.118;2023-07-31T14:15:10;5.80;;;2.40;;
33794;SDS011;51430;52.242;21.118;2023-07-31T14:17:38;6.40;;;2.70;;
33794;SDS011;51430;52.242;21.118;2023-07-31T14:20:07;3.20;;;2.10;;
33794;SDS011;51430;52.242;21.118;2023-07-31T14:22:36;4.90;;;3.50;;
33794;SDS011;51430;52.242;21.118;2023-07-31T14:25:06;6.70;;;4.20;;
33794;SDS011;51430;52.242;21.118;2023-07-31T14:27:34;9.70;;;6.50;;
33794;SDS011;51430;52.242;21.118;2023-07-31T14:30:02;7.40;;;5.40;;
33794;SDS011;51430;52.242;21.118;2023-07-31T14:32:31;4.70;;;3.60;;
33794;SDS011;51430;52.242;21.118;2023-07-31T14:34:59;3.50;;;2.00;;
33794;SDS011;51430;52.242;21.118;2023-07-31T14:37:27;3.40;;;2.10;;
33794;SDS011;51430;52.242;21.118;2023-07-31T14:40:05;4.30;;;2.00;;
33794;SDS011;51430;52.242;21.118;2023-07-31T14:42:36;4.80;;;1.90;;
33794;SDS011;51430;52.242;21.118;2023-07-31T14:45:05;4.70;;;1.90;;
33794;SDS011;51430;52.242;21.118;2023-07-31T14:47:35;5.60;;;2.10;;
33794;SDS011;51430;52.242;21.118;2023-07-31T14:50:05;5.20;;;2.00;;
33794;SDS011;51430;52.242;21.118;2023-07-31T14:52:33;5.10;;;2.00;;
33794;SDS011;51430;52.242;21.118;2023-07-31T14:55:02;4.40;;;1.80;;
33794;SDS011;51430;52.242;21.118;2023-07-31T14:57:30;3.60;;;1.80;;
33794;SDS011;51430;52.242;21.118;2023-07-31T14:59:58;4.30;;;2.10;;
33794;SDS011;51430;52.242;21.118;2023-07-31T15:02:26;5.20;;;1.90;;
33794;SDS011;51430;52.242;21.118;2023-07-31T15:04:55;5.20;;;2.10;;